createdAt,value
2023-05-10T00:02:19.403Z,100897.22
2023-05-10T00:04:45.833Z,100892.03
2023-05-10T00:07:12.319Z,100893.34
2023-05-10T00:09:38.754Z,100888.50
2023-05-10T00:12:05.695Z,100888.22
2023-05-10T00:14:32.371Z,100890.78
2023-05-10T00:16:58.844Z,100887.88
2023-05-10T00:19:25.473Z,100891.19
2023-05-10T00:21:52.051Z,100892.31
2023-05-10T00:24:18.486Z,100884.72
2023-05-10T00:26:46.044Z,100885.94
2023-05-10T00:29:12.441Z,100892.16
2023-05-10T00:31:38.912Z,100888.19
2023-05-10T00:34:05.606Z,100891.00
2023-05-10T00:36:32.271Z,100886.41
2023-05-10T00:38:58.778Z,100861.63
2023-05-10T00:41:25.225Z,100890.63
2023-05-10T00:43:51.630Z,100887.44
2023-05-10T00:46:18.195Z,100880.53
2023-05-10T00:48:45.262Z,100889.53
2023-05-10T00:51:11.844Z,100888.22
2023-05-10T00:53:38.829Z,100881.28
2023-05-10T00:56:05.291Z,100876.56
2023-05-10T00:58:32.126Z,100884.03
2023-05-10T01:00:59.463Z,100872.69
2023-05-10T01:03:27.213Z,100875.94
2023-05-10T01:05:53.665Z,100889.50
2023-05-10T01:08:20.614Z,100878.69
2023-05-10T01:10:49.893Z,100873.22
2023-05-10T01:13:28.922Z,100884.09
2023-05-10T01:15:55.695Z,100877.59
2023-05-10T01:18:22.898Z,100875.19
2023-05-10T01:21:08.148Z,100884.94
2023-05-10T01:24:02.809Z,100894.28
2023-05-10T01:26:57.456Z,100890.50
2023-05-10T01:29:32.939Z,100890.50
2023-05-10T01:32:37.053Z,100887.31
2023-05-10T01:35:06.611Z,100880.31
2023-05-10T01:37:41.980Z,100891.56
2023-05-10T01:40:19.631Z,100887.84
2023-05-10T01:42:53.369Z,100889.44
2023-05-10T01:45:32.866Z,100891.38
2023-05-10T01:48:11.580Z,100883.53
2023-05-10T01:50:40.712Z,100893.19
2023-05-10T01:53:10.502Z,100870.63
2023-05-10T01:55:42.907Z,100884.81
2023-05-10T01:58:16.341Z,100883.59
2023-05-10T02:00:45.553Z,100877.25
2023-05-10T02:03:14.559Z,100879.41
2023-05-10T02:05:42.286Z,100881.75
2023-05-10T02:08:09.258Z,100891.28
2023-05-10T02:10:37.042Z,100877.19
2023-05-10T02:13:07.032Z,100883.41
2023-05-10T02:15:34.787Z,100869.38
2023-05-10T02:18:03.188Z,100882.00
2023-05-10T02:20:32.440Z,100872.50
2023-05-10T02:23:00.405Z,100883.22
2023-05-10T02:25:27.877Z,100862.72
2023-05-10T02:27:57.357Z,100898.66
2023-05-10T02:30:25.093Z,100894.28
2023-05-10T02:32:52.840Z,100885.72
2023-05-10T02:35:20.187Z,100897.81
2023-05-10T02:37:48.836Z,100895.00
2023-05-10T02:40:18.582Z,100892.13
2023-05-10T02:42:48.306Z,100892.03
2023-05-10T02:45:20.440Z,100864.38
2023-05-10T02:47:47.105Z,100859.09
2023-05-10T02:50:13.950Z,100874.69
2023-05-10T02:52:53.209Z,100883.72
2023-05-10T02:55:23.416Z,100880.09
2023-05-10T02:57:57.124Z,100888.44
2023-05-10T03:00:23.505Z,100883.53
2023-05-10T03:02:49.986Z,100883.03
2023-05-10T03:05:16.417Z,100891.38
2023-05-10T03:07:43.090Z,100891.81
2023-05-10T03:10:10.521Z,100871.59
2023-05-10T03:13:21.763Z,100887.00
2023-05-10T03:16:00.130Z,100888.88
2023-05-10T03:18:37.906Z,100882.19
2023-05-10T03:21:08.904Z,100893.91
2023-05-10T03:23:41.339Z,100882.84
2023-05-10T03:26:09.040Z,100869.66
2023-05-10T03:28:36.356Z,100889.72
2023-05-10T03:31:05.359Z,100889.59
2023-05-10T03:33:32.918Z,100894.34
2023-05-10T03:35:59.294Z,100897.88
2023-05-10T03:38:26.510Z,100897.03
2023-05-10T03:40:53.675Z,100899.75
2023-05-10T03:43:20.078Z,100899.59
2023-05-10T03:45:46.598Z,100895.63
2023-05-10T03:48:14.624Z,100897.69
2023-05-10T03:50:41.125Z,100900.50
2023-05-10T03:53:07.633Z,100904.22
2023-05-10T03:55:36.993Z,100910.47
2023-05-10T03:58:03.486Z,100902.31
2023-05-10T04:00:29.906Z,100902.19
2023-05-10T04:02:56.402Z,100903.97
2023-05-10T04:05:22.889Z,100902.56
2023-05-10T04:07:50.785Z,100887.03
2023-05-10T04:10:17.872Z,100909.63
2023-05-10T04:12:44.565Z,100903.88
2023-05-10T04:15:11.258Z,100908.75
2023-05-10T04:17:38.547Z,100906.88
2023-05-10T04:20:05.624Z,100903.88
2023-05-10T04:22:33.180Z,100898.59
2023-05-10T04:24:59.569Z,100901.28
2023-05-10T04:27:25.974Z,100902.06
2023-05-10T04:29:52.392Z,100902.50
2023-05-10T04:32:18.849Z,100899.66
2023-05-10T04:34:45.368Z,100909.41
2023-05-10T04:37:11.842Z,100906.41
2023-05-10T04:39:40.235Z,100900.22
2023-05-10T04:42:08.116Z,100906.03
2023-05-10T04:44:34.524Z,100908.69
2023-05-10T04:47:01.182Z,100913.06
2023-05-10T04:49:27.570Z,100903.47
2023-05-10T04:51:53.963Z,100911.03
2023-05-10T04:54:20.409Z,100903.88
2023-05-10T04:56:46.821Z,100918.81
2023-05-10T04:59:13.286Z,100911.78
2023-05-10T05:01:40.393Z,100881.69
2023-05-10T05:04:07.733Z,100916.59
2023-05-10T05:06:34.132Z,100917.72
2023-05-10T05:09:00.512Z,100925.06
2023-05-10T05:11:27.006Z,100928.78
2023-05-10T05:13:53.402Z,100941.06
2023-05-10T05:16:19.884Z,100923.53
2023-05-10T05:18:46.284Z,100926.31
2023-05-10T05:21:20.453Z,100931.16
2023-05-10T05:23:46.972Z,100916.63
2023-05-10T05:26:13.414Z,100920.34
2023-05-10T05:28:39.870Z,100927.75
2023-05-10T05:31:06.727Z,100923.78
2023-05-10T05:33:33.205Z,100918.81
2023-05-10T05:36:02.247Z,100911.41
2023-05-10T05:38:28.664Z,100933.66
2023-05-10T05:40:55.050Z,100931.03
2023-05-10T05:43:21.483Z,100929.84
2023-05-10T05:45:47.926Z,100932.22
2023-05-10T05:48:14.388Z,100947.66
2023-05-10T05:50:40.763Z,100936.94
2023-05-10T05:53:07.129Z,100952.06
2023-05-10T05:55:33.585Z,100950.75
2023-05-10T05:57:59.984Z,100951.91
2023-05-10T06:00:26.885Z,100918.22
2023-05-10T06:02:53.426Z,100953.75
2023-05-10T06:05:19.913Z,100957.81
2023-05-10T06:07:46.979Z,100967.66
2023-05-10T06:10:13.368Z,100938.75
2023-05-10T06:12:40.019Z,100964.78
2023-05-10T06:15:06.894Z,100954.56
2023-05-10T06:17:33.336Z,100955.59
2023-05-10T06:19:59.852Z,100969.63
2023-05-10T06:22:26.250Z,100939.69
2023-05-10T06:24:52.636Z,100979.75
2023-05-10T06:27:19.023Z,100975.09
2023-05-10T06:29:45.387Z,100990.63
2023-05-10T06:32:11.761Z,100986.91
2023-05-10T06:34:38.195Z,100993.81
2023-05-10T06:37:04.703Z,100990.47
2023-05-10T06:39:31.086Z,100990.63
2023-05-10T06:41:57.553Z,100999.88
2023-05-10T06:44:23.927Z,100988.53
2023-05-10T06:46:50.860Z,100996.34
2023-05-10T06:49:17.419Z,101002.94
2023-05-10T06:51:43.771Z,100999.22
2023-05-10T06:54:10.135Z,100972.38
2023-05-10T06:56:36.622Z,100984.69
2023-05-10T06:59:03.923Z,101006.28
2023-05-10T07:01:30.447Z,100997.00
2023-05-10T07:03:56.998Z,101002.94
2023-05-10T07:06:33.020Z,101004.78
2023-05-10T07:09:01.297Z,101005.53
2023-05-10T07:11:27.801Z,101004.69
2023-05-10T07:13:54.171Z,101019.78
2023-05-10T07:16:20.743Z,101019.97
2023-05-10T07:18:47.288Z,101013.88
2023-05-10T07:21:13.779Z,101030.94
2023-05-10T07:23:40.723Z,101031.34
2023-05-10T07:26:08.019Z,101032.38
2023-05-10T07:28:34.467Z,101037.84
2023-05-10T07:31:00.998Z,101032.38
2023-05-10T07:33:27.392Z,101033.19
2023-05-10T07:35:54.313Z,101033.81
2023-05-10T07:38:20.732Z,101026.75
2023-05-10T07:40:47.119Z,101040.47
2023-05-10T07:43:13.510Z,101045.59
2023-05-10T07:45:39.904Z,101047.91
2023-05-10T07:48:06.574Z,101028.41
2023-05-10T07:50:33.120Z,101049.59
2023-05-10T07:52:59.522Z,101054.50
2023-05-10T07:55:26.004Z,101057.19
2023-05-10T07:57:52.445Z,101058.94
2023-05-10T08:00:20.917Z,101058.19
2023-05-10T08:02:48.669Z,101060.22
2023-05-10T08:05:15.721Z,101063.50
2023-05-10T08:07:43.363Z,101065.34
2023-05-10T08:10:10.322Z,101065.81
2023-05-10T08:12:36.697Z,101061.81
2023-05-10T08:15:03.400Z,101070.56
2023-05-10T08:17:29.843Z,101072.47
2023-05-10T08:19:56.433Z,101075.31
2023-05-10T08:22:22.863Z,101081.81
2023-05-10T08:24:49.226Z,101086.94
2023-05-10T08:27:15.614Z,101092.22
2023-05-10T08:29:49.639Z,101096.44
2023-05-10T08:32:16.671Z,101085.34
2023-05-10T08:34:43.085Z,101101.06
2023-05-10T08:37:09.712Z,101095.84
2023-05-10T08:39:36.831Z,101108.78
2023-05-10T08:42:05.709Z,101100.81
2023-05-10T08:44:35.142Z,101098.88
2023-05-10T08:47:05.473Z,101098.97
2023-05-10T08:49:33.580Z,101110.84
2023-05-10T08:52:04.654Z,101111.28
2023-05-10T08:54:32.860Z,101110.88
2023-05-10T08:56:59.595Z,101116.63
2023-05-10T08:59:26.179Z,101092.19
2023-05-10T09:01:55.010Z,101132.66
2023-05-10T09:04:22.211Z,101126.00
2023-05-10T09:06:48.917Z,101127.22
2023-05-10T09:09:17.045Z,101134.00
2023-05-10T09:11:44.316Z,101121.59
2023-05-10T09:14:11.188Z,101144.28
2023-05-10T09:16:37.732Z,101137.03
2023-05-10T09:19:04.386Z,101145.84
2023-05-10T09:21:32.048Z,101148.06
2023-05-10T09:24:03.502Z,101158.81
2023-05-10T09:26:29.883Z,101160.25
2023-05-10T09:28:58.120Z,101167.59
2023-05-10T09:31:28.479Z,101176.22
2023-05-10T09:33:55.046Z,101180.97
2023-05-10T09:36:21.439Z,101181.06
2023-05-10T09:38:49.199Z,101179.22
2023-05-10T09:41:20.455Z,101181.88
2023-05-10T09:43:47.281Z,101190.25
2023-05-10T09:46:14.017Z,101184.91
2023-05-10T09:48:45.953Z,101184.69
2023-05-10T09:51:21.242Z,101187.13
2023-05-10T09:53:47.708Z,101187.78
2023-05-10T09:56:14.353Z,101187.91
2023-05-10T09:58:41.377Z,101192.94
2023-05-10T10:01:13.088Z,101187.72
2023-05-10T10:03:43.737Z,101187.28
2023-05-10T10:06:18.807Z,101194.69
2023-05-10T10:08:56.756Z,101167.94
2023-05-10T10:11:24.735Z,101188.69
2023-05-10T10:13:51.204Z,101181.16
2023-05-10T10:16:17.668Z,101204.56
2023-05-10T10:18:44.340Z,101213.03
2023-05-10T10:21:10.934Z,101174.13
2023-05-10T10:23:37.386Z,101202.03
2023-05-10T10:26:05.744Z,101201.03
2023-05-10T10:28:40.547Z,101195.03
2023-05-10T10:31:29.205Z,101190.03
2023-05-10T10:34:06.408Z,101202.34
2023-05-10T10:36:34.824Z,101223.63
2023-05-10T10:39:02.526Z,101224.78
2023-05-10T10:41:37.399Z,101218.50
2023-05-10T10:44:23.079Z,101223.81
2023-05-10T10:47:25.161Z,101228.22
2023-05-10T10:49:58.498Z,101225.44
2023-05-10T10:52:24.934Z,101226.34
2023-05-10T10:55:09.403Z,101227.31
2023-05-10T10:57:45.387Z,101224.44
2023-05-10T11:00:32.002Z,101223.69
2023-05-10T11:02:58.601Z,101232.97
2023-05-10T11:05:34.535Z,101226.69
2023-05-10T11:08:07.154Z,101225.66
2023-05-10T11:10:33.639Z,101228.47
2023-05-10T11:13:04.953Z,101223.03
2023-05-10T11:15:36.521Z,101237.38
2023-05-10T11:18:24.561Z,101226.97
2023-05-10T11:20:52.417Z,101231.91
2023-05-10T11:23:20.167Z,101240.13
2023-05-10T11:25:46.941Z,101243.19
2023-05-10T11:28:13.938Z,101242.31
2023-05-10T11:30:41.651Z,101241.16
2023-05-10T11:33:09.209Z,101252.97
2023-05-10T11:35:43.029Z,101210.22
2023-05-10T11:38:11.632Z,101231.91
2023-05-10T11:40:38.903Z,101239.06
2023-05-10T11:43:06.613Z,101252.25
2023-05-10T11:45:34.192Z,101241.19
2023-05-10T11:48:01.233Z,101242.88
2023-05-10T11:50:28.318Z,101268.72
2023-05-10T11:52:56.262Z,101270.19
2023-05-10T11:55:23.572Z,101280.03
2023-05-10T11:57:53.403Z,101288.19
2023-05-10T12:00:20.328Z,101287.94
2023-05-10T12:02:47.263Z,101292.84
2023-05-10T12:05:14.196Z,101294.72
2023-05-10T12:07:40.598Z,101283.03
2023-05-10T12:10:11.659Z,101296.66
2023-05-10T12:12:43.113Z,101296.41
2023-05-10T12:15:28.890Z,101275.22
2023-05-10T12:17:55.821Z,101267.84
2023-05-10T12:20:25.282Z,101299.63
2023-05-10T12:22:58.931Z,101287.97
2023-05-10T12:25:33.648Z,101304.03
2023-05-10T12:28:04.542Z,101302.94
2023-05-10T12:30:33.432Z,101307.31
2023-05-10T12:33:14.191Z,101313.31
2023-05-10T12:35:52.336Z,101321.94
2023-05-10T12:38:29.798Z,101329.22
2023-05-10T12:41:04.623Z,101329.25
2023-05-10T12:43:31.795Z,101321.06
2023-05-10T12:45:58.532Z,101335.06
2023-05-10T12:48:25.044Z,101336.78
2023-05-10T12:50:51.520Z,101339.59
2023-05-10T12:53:17.932Z,101333.69
2023-05-10T12:55:44.989Z,101333.81
2023-05-10T12:58:15.791Z,101313.50
2023-05-10T13:00:47.809Z,101334.25
2023-05-10T13:03:14.611Z,101317.56
2023-05-10T13:05:41.071Z,101330.63
2023-05-10T13:08:07.489Z,101327.97
2023-05-10T13:10:33.956Z,101330.75
2023-05-10T13:13:00.406Z,101346.72
2023-05-10T13:15:27.240Z,101342.50
2023-05-10T13:17:54.547Z,101311.09
2023-05-10T13:20:21.447Z,101343.75
2023-05-10T13:22:47.858Z,101336.34
2023-05-10T13:25:14.481Z,101353.66
2023-05-10T13:27:41.492Z,101351.19
2023-05-10T13:30:09.407Z,101353.56
2023-05-10T13:32:36.001Z,101357.22
2023-05-10T13:35:04.142Z,101361.53
2023-05-10T13:37:31.492Z,101366.94
2023-05-10T13:39:57.991Z,101361.28
2023-05-10T13:42:24.588Z,101369.03
2023-05-10T13:44:51.421Z,101366.31
2023-05-10T13:47:17.857Z,101368.47
2023-05-10T13:49:44.505Z,101367.28
2023-05-10T13:52:11.114Z,101368.75
2023-05-10T13:54:38.975Z,101358.56
2023-05-10T13:57:05.554Z,101368.06
2023-05-10T13:59:32.654Z,101357.69
2023-05-10T14:01:59.894Z,101361.06
2023-05-10T14:04:26.476Z,101369.13
2023-05-10T14:06:53.813Z,101360.53
2023-05-10T14:09:20.450Z,101362.25
2023-05-10T14:11:47.007Z,101354.22
2023-05-10T14:14:14.263Z,101341.47
2023-05-10T14:16:45.187Z,101359.47
2023-05-10T14:19:12.230Z,101360.91
2023-05-10T14:21:39.074Z,101362.63
2023-05-10T14:24:05.924Z,101346.59
2023-05-10T14:26:32.600Z,101352.53
2023-05-10T14:28:59.909Z,101367.41
2023-05-10T14:31:26.653Z,101358.50
2023-05-10T14:33:56.138Z,101356.50
2023-05-10T14:36:23.496Z,101356.59
2023-05-10T14:38:49.920Z,101359.66
2023-05-10T14:41:18.402Z,101362.53
2023-05-10T14:43:44.857Z,101368.63
2023-05-10T14:46:11.281Z,101370.16
2023-05-10T14:48:37.754Z,101370.78
2023-05-10T14:51:04.608Z,101360.34
2023-05-10T14:53:31.216Z,101365.03
2023-05-10T14:55:58.333Z,101370.72
2023-05-10T14:58:24.753Z,101366.66
2023-05-10T15:00:51.366Z,101369.13
2023-05-10T15:03:18.244Z,101368.28
2023-05-10T15:05:45.103Z,101378.59
2023-05-10T15:08:13.361Z,101379.44
2023-05-10T15:10:40.712Z,101381.88
2023-05-10T15:13:07.135Z,101378.88
2023-05-10T15:15:33.637Z,101373.59
2023-05-10T15:18:00.294Z,101373.91
2023-05-10T15:20:26.792Z,101373.22
2023-05-10T15:22:53.238Z,101384.94
2023-05-10T15:25:20.986Z,101382.91
2023-05-10T15:27:47.468Z,101383.06
2023-05-10T15:30:14.160Z,101384.06
2023-05-10T15:32:41.435Z,101394.78
2023-05-10T15:35:09.322Z,101393.47
2023-05-10T15:37:35.776Z,101392.34
2023-05-10T15:40:04.830Z,101399.59
2023-05-10T15:42:32.611Z,101402.88
2023-05-10T15:44:59.730Z,101371.69
2023-05-10T15:47:27.103Z,101404.97
2023-05-10T15:49:53.534Z,101408.94
2023-05-10T15:52:21.561Z,101407.22
2023-05-10T15:54:48.010Z,101390.28
2023-05-10T15:57:14.387Z,101411.28
2023-05-10T15:59:40.863Z,101415.28
2023-05-10T16:02:08.738Z,101421.06
2023-05-10T16:04:35.179Z,101418.28
2023-05-10T16:07:01.598Z,101423.69
2023-05-10T16:09:28.165Z,101424.13
2023-05-10T16:11:54.588Z,101423.69
2023-05-10T16:14:24.689Z,101419.50
2023-05-10T16:16:51.553Z,101433.56
2023-05-10T16:19:18.482Z,101402.44
2023-05-10T16:21:45.208Z,101425.22
2023-05-10T16:24:11.671Z,101424.53
2023-05-10T16:26:40.911Z,101418.34
2023-05-10T16:29:10.558Z,101429.47
2023-05-10T16:31:37.014Z,101436.66
2023-05-10T16:34:03.796Z,101433.75
2023-05-10T16:36:31.327Z,101441.16
2023-05-10T16:38:57.776Z,101441.50
2023-05-10T16:41:24.309Z,101438.34
2023-05-10T16:43:50.698Z,101422.06
2023-05-10T16:46:17.128Z,101430.38
2023-05-10T16:48:43.601Z,101445.84
2023-05-10T16:51:09.996Z,101439.34
2023-05-10T16:53:36.469Z,101446.69
2023-05-10T16:56:03.538Z,101440.28
2023-05-10T16:58:29.956Z,101446.72
2023-05-10T17:00:56.432Z,101450.31
2023-05-10T17:03:23.355Z,101454.22
2023-05-10T17:05:50.053Z,101457.59
2023-05-10T17:08:16.713Z,101465.06
2023-05-10T17:10:43.256Z,101455.84
2023-05-10T17:13:10.555Z,101456.41
2023-05-10T17:15:37.858Z,101462.94
2023-05-10T17:18:05.052Z,101456.94
2023-05-10T17:20:31.580Z,101467.50
2023-05-10T17:22:58.086Z,101464.56
2023-05-10T17:25:24.510Z,101468.34
2023-05-10T17:27:50.948Z,101462.94
2023-05-10T17:30:22.425Z,101470.81
2023-05-10T17:32:48.937Z,101475.84
2023-05-10T17:35:15.517Z,101472.84
2023-05-10T17:37:42.142Z,101470.75
2023-05-10T17:40:09.974Z,101473.97
2023-05-10T17:42:36.674Z,101467.50
2023-05-10T17:45:03.783Z,101470.28
2023-05-10T17:47:30.329Z,101475.84
2023-05-10T17:49:56.827Z,101476.19
2023-05-10T17:52:23.297Z,101474.78
2023-05-10T17:54:49.664Z,101483.97
2023-05-10T17:57:16.056Z,101488.25
2023-05-10T17:59:42.489Z,101492.25
2023-05-10T18:02:08.884Z,101497.81
2023-05-10T18:04:35.456Z,101495.56
2023-05-10T18:07:02.066Z,101497.31
2023-05-10T18:09:28.752Z,101503.78
2023-05-10T18:11:55.292Z,101492.59
2023-05-10T18:14:36.059Z,101478.78
2023-05-10T18:17:06.911Z,101508.50
2023-05-10T18:19:33.503Z,101506.78
2023-05-10T18:21:59.925Z,101498.75
2023-05-10T18:24:37.565Z,101507.03
2023-05-10T18:27:05.901Z,101513.50
2023-05-10T18:29:32.567Z,101512.03
2023-05-10T18:31:59.029Z,101514.94
2023-05-10T18:34:25.468Z,101522.22
2023-05-10T18:36:52.490Z,101524.91
2023-05-10T18:39:19.033Z,101517.25
2023-05-10T18:41:45.758Z,101522.66
2023-05-10T18:44:12.193Z,101535.19
2023-05-10T18:46:38.691Z,101533.22
2023-05-10T18:49:06.455Z,101548.94
2023-05-10T18:51:33.042Z,101546.78
2023-05-10T18:53:59.463Z,101546.59
2023-05-10T18:56:25.922Z,101540.34
2023-05-10T18:58:52.688Z,101550.25
2023-05-10T19:01:19.186Z,101552.75
2023-05-10T19:03:45.736Z,101556.75
2023-05-10T19:06:12.179Z,101552.41
2023-05-10T19:08:38.617Z,101566.09
2023-05-10T19:11:05.054Z,101543.91
2023-05-10T19:13:31.516Z,101560.97
2023-05-10T19:16:16.559Z,101544.25
2023-05-10T19:18:45.207Z,101563.94
2023-05-10T19:21:11.679Z,101563.81
2023-05-10T19:23:40.081Z,101569.59
2023-05-10T19:26:06.523Z,101581.47
2023-05-10T19:28:34.082Z,101585.25
2023-05-10T19:31:02.366Z,101579.31
2023-05-10T19:33:29.237Z,101583.81
2023-05-10T19:35:55.704Z,101573.88
2023-05-10T19:38:23.330Z,101584.34
2023-05-10T19:40:51.040Z,101586.31
2023-05-10T19:43:17.725Z,101584.38
2023-05-10T19:45:44.197Z,101582.34
2023-05-10T19:48:12.407Z,101576.38
2023-05-10T19:50:38.867Z,101589.44
2023-05-10T19:53:05.261Z,101584.03
2023-05-10T19:55:32.497Z,101587.53
2023-05-10T19:58:00.650Z,101597.78
2023-05-10T20:00:27.362Z,101600.75
2023-05-10T20:02:54.188Z,101604.28
2023-05-10T20:05:21.557Z,101613.47
2023-05-10T20:07:48.048Z,101602.78
2023-05-10T20:10:15.446Z,101606.41
2023-05-10T20:12:41.823Z,101603.81
2023-05-10T20:15:08.310Z,101594.56
2023-05-10T20:17:35.630Z,101604.06
2023-05-10T20:20:02.147Z,101589.50
2023-05-10T20:22:28.540Z,101603.06
2023-05-10T20:24:56.254Z,101605.50
2023-05-10T20:27:23.341Z,101604.47
2023-05-10T20:29:49.731Z,101597.25
2023-05-10T20:32:16.278Z,101599.50
2023-05-10T20:34:42.672Z,101596.13
2023-05-10T20:37:09.145Z,101583.16
2023-05-10T20:39:35.829Z,101609.53
2023-05-10T20:42:02.369Z,101602.97
2023-05-10T20:44:28.765Z,101593.56
2023-05-10T20:46:55.334Z,101607.38
2023-05-10T20:49:21.839Z,101583.13
2023-05-10T20:51:48.280Z,101606.38
2023-05-10T20:54:14.675Z,101613.63
2023-05-10T20:56:41.095Z,101617.03
2023-05-10T20:59:07.489Z,101607.09
2023-05-10T21:01:33.950Z,101616.81
2023-05-10T21:04:00.448Z,101620.06
2023-05-10T21:06:26.825Z,101620.56
2023-05-10T21:08:53.239Z,101615.84
2023-05-10T21:11:19.603Z,101625.94
2023-05-10T21:13:46.006Z,101627.66
2023-05-10T21:16:12.445Z,101637.06
2023-05-10T21:18:38.979Z,101628.47
2023-05-10T21:21:05.420Z,101633.72
2023-05-10T21:23:34.277Z,101633.00
2023-05-10T21:26:05.416Z,101644.16
2023-05-10T21:28:31.813Z,101644.47
2023-05-10T21:30:58.280Z,101642.13
2023-05-10T21:33:24.756Z,101639.75
2023-05-10T21:35:51.635Z,101634.03
2023-05-10T21:38:18.031Z,101628.97
2023-05-10T21:40:44.498Z,101636.06
2023-05-10T21:43:11.266Z,101631.34
2023-05-10T21:45:38.100Z,101628.31
2023-05-10T21:48:04.621Z,101630.34
2023-05-10T21:50:31.096Z,101622.06
2023-05-10T21:52:57.682Z,101624.56
2023-05-10T21:55:24.231Z,101635.72
2023-05-10T21:57:51.167Z,101640.44
2023-05-10T22:00:19.275Z,101639.06
2023-05-10T22:02:46.541Z,101636.38
2023-05-10T22:05:13.522Z,101635.22
2023-05-10T22:07:39.993Z,101617.19
2023-05-10T22:10:08.156Z,101640.44
2023-05-10T22:12:34.578Z,101645.50
2023-05-10T22:15:10.169Z,101646.84
2023-05-10T22:17:39.332Z,101622.41
2023-05-10T22:20:08.395Z,101627.31
2023-05-10T22:22:34.825Z,101653.59
2023-05-10T22:25:01.223Z,101652.25
2023-05-10T22:27:27.610Z,101654.09
2023-05-10T22:29:53.996Z,101638.75
2023-05-10T22:32:20.402Z,101655.94
2023-05-10T22:34:46.806Z,101658.63
2023-05-10T22:37:17.622Z,101663.03
2023-05-10T22:39:45.948Z,101659.16
2023-05-10T22:42:12.396Z,101654.59
2023-05-10T22:44:38.790Z,101659.50
2023-05-10T22:47:06.572Z,101656.47
2023-05-10T22:49:33.741Z,101647.53
2023-05-10T22:52:00.611Z,101650.72
2023-05-10T22:54:27.409Z,101656.13
2023-05-10T22:56:54.274Z,101643.16
2023-05-10T22:59:20.891Z,101659.34
2023-05-10T23:01:48.881Z,101661.69
2023-05-10T23:04:15.784Z,101662.19
2023-05-10T23:06:42.253Z,101665.91
2023-05-10T23:09:08.980Z,101638.75
2023-05-10T23:11:35.419Z,101658.31
2023-05-10T23:14:01.871Z,101664.41
2023-05-10T23:16:28.435Z,101650.22
2023-05-10T23:18:55.685Z,101659.00
2023-05-10T23:21:22.173Z,101670.78
2023-05-10T23:23:48.610Z,101655.44
2023-05-10T23:26:15.042Z,101675.50
2023-05-10T23:28:41.450Z,101664.06
2023-05-10T23:31:07.856Z,101666.91
2023-05-10T23:33:34.287Z,101667.41
2023-05-10T23:36:00.795Z,101667.94
2023-05-10T23:38:27.203Z,101677.03
2023-05-10T23:40:54.337Z,101671.94
2023-05-10T23:43:21.642Z,101667.94
2023-05-10T23:45:57.812Z,101667.41
2023-05-10T23:48:24.393Z,101660.34
2023-05-10T23:50:50.901Z,101659.47
2023-05-10T23:53:17.370Z,101660.00
2023-05-10T23:55:43.916Z,101665.41
2023-05-10T23:58:10.644Z,101658.81
